Time;durP1;ratioP1;P1;durP2;ratioP2;P2;SDS_P1;SDS_P2;PMS_P1;PMS_P2;Temp;Humidity;BMP_temperature;BMP_pressure;BME280_temperature;BME280_humidity;BME280_pressure;Samples;Min_cycle;Max_cycle;Signal;HPM_P1;HPM_P2
2021/07/24 00:00:28;;;;;;;16.60;11.40;;;18.90;76.10;;;;;;5045367;28;20061;-63
2021/07/24 00:02:53;;;;;;;14.38;11.00;;;18.80;75.30;;;;;;5045853;28;20029;-63
2021/07/24 00:05:19;;;;;;;17.83;11.05;;;18.70;75.50;;;;;;5044645;28;20037;-63
2021/07/24 00:07:45;;;;;;;15.13;10.95;;;18.70;75.30;;;;;;5045223;28;20030;-63
2021/07/24 00:10:10;;;;;;;17.88;11.13;;;18.70;75.70;;;;;;5044274;28;20101;-63
2021/07/24 00:12:36;;;;;;;16.52;10.75;;;18.70;75.50;;;;;;5045193;28;20095;-63
2021/07/24 00:15:01;;;;;;;17.63;10.80;;;18.50;75.90;;;;;;5045942;28;20346;-63
2021/07/24 00:17:27;;;;;;;21.00;11.55;;;18.50;76.40;;;;;;5045619;28;20038;-63
2021/07/24 00:19:52;;;;;;;20.50;11.18;;;18.50;76.70;;;;;;5044459;28;20037;-63
2021/07/24 00:22:18;;;;;;;17.20;10.95;;;18.50;76.70;;;;;;5045114;28;20217;-63
2021/07/24 00:24:44;;;;;;;17.13;10.93;;;18.60;76.80;;;;;;5044776;28;20041;-63
2021/07/24 00:27:10;;;;;;;17.30;11.35;;;18.50;76.90;;;;;;5045704;28;20343;-63
2021/07/24 00:29:36;;;;;;;15.90;10.38;;;18.60;76.60;;;;;;5045391;28;20033;-63
2021/07/24 00:32:04;;;;;;;16.48;10.85;;;18.70;76.60;;;;;;5045395;28;20037;-63
2021/07/24 00:34:30;;;;;;;15.73;11.23;;;18.50;75.90;;;;;;5043908;28;20037;-63
2021/07/24 00:36:57;;;;;;;16.58;11.43;;;18.40;76.00;;;;;;5044854;28;20029;-63
2021/07/24 00:39:23;;;;;;;16.08;11.35;;;18.40;76.30;;;;;;5044948;28;20049;-63
2021/07/24 00:41:53;;;;;;;15.35;10.98;;;18.30;75.90;;;;;;5045458;28;20036;-63
2021/07/24 00:44:21;;;;;;;16.35;10.85;;;18.40;76.20;;;;;;5045122;28;20033;-63
2021/07/24 00:46:46;;;;;;;17.48;10.85;;;18.50;76.50;;;;;;5044576;28;20394;-63
2021/07/24 00:49:12;;;;;;;17.73;11.50;;;18.40;75.70;;;;;;5044649;28;20030;-63
2021/07/24 00:51:46;;;;;;;18.08;11.80;;;18.30;75.90;;;;;;5043448;28;20029;-63
2021/07/24 00:54:12;;;;;;;15.05;10.75;;;18.30;76.00;;;;;;5045195;28;20033;-63
2021/07/24 00:56:40;;;;;;;17.48;12.00;;;18.30;76.20;;;;;;5043296;28;20229;-63
2021/07/24 00:59:06;;;;;;;21.05;12.05;;;18.30;76.40;;;;;;5043602;28;20244;-63
2021/07/24 01:01:32;;;;;;;14.50;10.88;;;18.30;76.20;;;;;;5043213;28;20128;-63
2021/07/24 01:03:57;;;;;;;15.93;11.65;;;18.20;76.70;;;;;;5044321;28;20076;-63
2021/07/24 01:06:23;;;;;;;16.40;11.50;;;18.10;76.90;;;;;;5043624;28;20033;-63
2021/07/24 01:08:49;;;;;;;16.80;11.80;;;18.20;77.10;;;;;;5027516;28;20025;-63
2021/07/24 01:11:14;;;;;;;21.05;11.45;;;18.10;77.30;;;;;;5044669;28;20037;-63
2021/07/24 01:13:40;;;;;;;16.80;11.73;;;18.00;77.60;;;;;;5044415;28;20067;-63
2021/07/24 01:16:06;;;;;;;19.65;12.32;;;18.00;77.80;;;;;;5044219;28;20034;-63
2021/07/24 01:18:31;;;;;;;17.95;11.38;;;17.90;78.10;;;;;;5044047;28;20343;-63
2021/07/24 01:21:05;;;;;;;16.40;11.40;;;18.00;78.20;;;;;;5043333;28;20081;-63
2021/07/24 01:23:31;;;;;;;15.85;11.75;;;17.90;78.00;;;;;;5027069;28;20034;-63
2021/07/24 01:25:56;;;;;;;19.92;11.07;;;18.00;77.90;;;;;;5042973;28;20344;-63
2021/07/24 01:28:26;;;;;;;18.73;12.00;;;17.90;77.70;;;;;;5043847;28;20075;-63
2021/07/24 01:30:52;;;;;;;15.75;11.00;;;17.80;77.80;;;;;;5042951;28;20112;-63
2021/07/24 01:33:18;;;;;;;16.52;10.90;;;17.80;77.80;;;;;;5043746;28;20333;-64
2021/07/24 01:35:48;;;;;;;16.67;11.52;;;17.80;77.90;;;;;;5026719;28;20021;-63
2021/07/24 01:38:16;;;;;;;18.45;11.23;;;17.80;78.00;;;;;;5043691;28;20038;-63
2021/07/24 01:40:42;;;;;;;16.35;11.93;;;17.80;78.20;;;;;;5043811;28;20033;-63
2021/07/24 01:43:07;;;;;;;16.63;11.40;;;17.70;78.20;;;;;;5043644;28;20040;-63
2021/07/24 01:45:33;;;;;;;16.13;10.85;;;17.70;78.10;;;;;;5042503;28;20306;-63
2021/07/24 01:48:00;;;;;;;15.82;11.02;;;17.70;78.10;;;;;;5026965;28;20186;-63
2021/07/24 01:53:09;;;;;;;16.77;11.63;;;17.70;78.20;;;;;;5043525;28;20037;-63
2021/07/24 01:55:40;;;;;;;15.98;11.18;;;17.60;78.20;;;;;;5043913;28;20033;-63
2021/07/24 01:58:06;;;;;;;19.58;12.63;;;17.60;78.00;;;;;;5043811;28;20037;-63
2021/07/24 02:00:32;;;;;;;20.70;11.75;;;17.50;78.40;;;;;;5042828;28;20022;-63
2021/07/24 02:02:57;;;;;;;17.77;11.20;;;17.40;78.40;;;;;;5026855;28;20309;-63
2021/07/24 02:05:39;;;;;;;23.27;12.18;;;17.50;78.40;;;;;;5026345;28;20052;-63
2021/07/24 02:08:05;;;;;;;16.50;11.68;;;17.40;78.20;;;;;;5043912;28;20045;-63
2021/07/24 02:10:31;;;;;;;16.33;11.40;;;17.40;78.30;;;;;;5026125;28;20026;-63
2021/07/24 02:12:57;;;;;;;17.70;11.75;;;17.30;78.20;;;;;;5042398;28;20030;-63
2021/07/24 02:15:22;;;;;;;21.15;11.98;;;17.30;78.20;;;;;;5043601;28;20271;-63
2021/07/24 02:17:48;;;;;;;17.45;12.07;;;17.30;78.30;;;;;;5048164;28;20069;-63
2021/07/24 02:20:13;;;;;;;21.85;12.32;;;17.30;78.60;;;;;;5046705;28;20048;-63
2021/07/24 02:22:39;;;;;;;19.73;11.90;;;17.40;79.10;;;;;;5029644;28;20037;-63
2021/07/24 02:25:05;;;;;;;19.40;11.40;;;17.40;78.80;;;;;;5047741;28;20041;-63
2021/07/24 02:27:32;;;;;;;16.98;11.95;;;17.40;78.40;;;;;;5047418;28;20316;-63
2021/07/24 02:29:58;;;;;;;17.40;11.80;;;17.40;78.30;;;;;;5047678;28;20033;-63
2021/07/24 02:32:23;;;;;;;16.77;11.50;;;17.30;78.60;;;;;;5047649;28;20099;-63
2021/07/24 02:34:49;;;;;;;18.33;11.45;;;17.30;78.70;;;;;;5047385;28;20056;-63
2021/07/24 02:37:14;;;;;;;17.73;12.02;;;17.40;78.70;;;;;;5047399;28;20025;-63
2021/07/24 02:39:40;;;;;;;16.00;11.50;;;17.40;78.30;;;;;;5046990;28;20049;-63
2021/07/24 02:42:05;;;;;;;16.63;11.80;;;17.40;78.10;;;;;;5047435;28;20373;-63
2021/07/24 02:44:31;;;;;;;19.25;12.15;;;17.30;78.30;;;;;;5047340;28;20096;-63
2021/07/24 02:46:57;;;;;;;20.50;12.13;;;17.30;78.20;;;;;;5047343;28;20033;-63
2021/07/24 02:49:22;;;;;;;16.67;11.57;;;17.20;78.40;;;;;;5046969;28;20036;-63
2021/07/24 02:51:48;;;;;;;18.10;12.35;;;17.20;78.60;;;;;;5046739;28;20048;-63
2021/07/24 02:54:13;;;;;;;16.73;11.57;;;17.20;78.80;;;;;;5046703;28;20029;-63
2021/07/24 02:56:39;;;;;;;16.63;11.13;;;17.40;79.40;;;;;;5046612;28;20075;-63
2021/07/24 02:59:05;;;;;;;15.70;11.95;;;17.50;78.60;;;;;;5047054;28;20096;-63
2021/07/24 03:01:30;;;;;;;16.60;11.23;;;17.30;77.70;;;;;;5029263;28;20377;-63
2021/07/24 03:03:56;;;;;;;20.13;11.93;;;17.20;78.20;;;;;;5046819;28;20029;-63
2021/07/24 03:06:21;;;;;;;19.23;11.18;;;17.20;78.10;;;;;;5046351;28;20089;-63
2021/07/24 03:08:47;;;;;;;16.63;11.25;;;17.30;79.00;;;;;;5047217;28;20040;-63
2021/07/24 03:11:12;;;;;;;18.40;11.52;;;17.40;78.30;;;;;;5046802;28;20344;-63
2021/07/24 03:13:38;;;;;;;17.27;11.95;;;17.20;78.30;;;;;;5045459;28;20037;-63
2021/07/24 03:16:03;;;;;;;19.35;12.65;;;17.10;78.50;;;;;;5046616;28;20075;-63
2021/07/24 03:18:29;;;;;;;18.63;12.23;;;17.10;79.50;;;;;;5046212;28;20049;-63
2021/07/24 03:20:54;;;;;;;18.25;12.38;;;17.30;79.30;;;;;;5047249;28;20057;-63
2021/07/24 03:23:20;;;;;;;19.20;12.70;;;17.30;78.00;;;;;;5046250;28;20045;-63
2021/07/24 03:25:45;;;;;;;17.95;11.98;;;17.10;78.50;;;;;;5046409;28;20041;-63
2021/07/24 03:28:11;;;;;;;20.00;12.02;;;17.20;79.40;;;;;;5044647;28;20033;-63
2021/07/24 03:30:38;;;;;;;17.67;12.63;;;17.30;79.10;;;;;;5046047;28;20075;-63
2021/07/24 03:33:03;;;;;;;17.75;11.75;;;17.20;78.50;;;;;;5045710;28;20025;-63
2021/07/24 03:35:29;;;;;;;18.15;12.15;;;17.10;78.70;;;;;;5046648;28;20041;-63
2021/07/24 03:37:54;;;;;;;18.23;12.57;;;17.20;79.80;;;;;;5045967;28;20340;-63
2021/07/24 03:40:20;;;;;;;17.83;12.40;;;17.20;78.80;;;;;;5045819;28;20071;-63
2021/07/24 03:42:46;;;;;;;18.40;12.13;;;17.10;79.00;;;;;;5045964;28;20148;-63
2021/07/24 03:45:12;;;;;;;18.00;12.10;;;17.20;79.90;;;;;;5046718;28;20029;-63
2021/07/24 03:47:37;;;;;;;19.83;11.80;;;17.20;79.00;;;;;;5046261;28;20356;-63
2021/07/24 03:50:03;;;;;;;18.75;12.20;;;17.10;79.30;;;;;;5044489;28;20029;-63
2021/07/24 03:52:28;;;;;;;25.35;12.65;;;17.00;79.70;;;;;;5045583;28;20026;-63
2021/07/24 03:54:54;;;;;;;18.52;12.63;;;16.90;80.00;;;;;;5045559;28;20045;-63
2021/07/24 03:57:19;;;;;;;23.02;12.95;;;16.90;79.70;;;;;;5045593;28;20033;-63
2021/07/24 03:59:45;;;;;;;22.80;11.73;;;17.10;80.30;;;;;;5044926;28;20018;-63
2021/07/24 04:02:17;;;;;;;16.85;12.27;;;17.30;80.10;;;;;;5045948;28;20033;-63
2021/07/24 04:04:45;;;;;;;21.60;12.50;;;17.30;79.30;;;;;;5044179;28;20052;-63
2021/07/24 04:07:11;;;;;;;18.25;12.10;;;17.20;79.40;;;;;;5028090;28;20032;-63
2021/07/24 04:09:36;;;;;;;21.83;12.85;;;17.20;79.70;;;;;;5027810;28;20042;-63
2021/07/24 04:12:02;;;;;;;19.40;12.93;;;17.10;79.90;;;;;;5046029;28;20022;-63
2021/07/24 04:14:27;;;;;;;23.08;12.80;;;17.20;79.90;;;;;;5045645;28;20038;-63
2021/07/24 04:16:53;;;;;;;18.08;11.68;;;17.20;80.00;;;;;;5044401;28;20037;-63
2021/07/24 04:19:18;;;;;;;20.25;12.07;;;17.30;80.50;;;;;;5045498;28;20041;-63
2021/07/24 04:21:44;;;;;;;18.23;12.02;;;17.30;79.70;;;;;;5045582;28;20328;-63
2021/07/24 04:24:09;;;;;;;19.85;12.40;;;17.30;79.60;;;;;;5045237;28;20382;-63
2021/07/24 04:26:35;;;;;;;22.58;13.57;;;17.30;79.80;;;;;;5045475;28;20033;-63
2021/07/24 04:29:00;;;;;;;20.45;12.45;;;17.30;80.40;;;;;;5045356;28;20033;-63
2021/07/24 04:31:26;;;;;;;18.15;11.73;;;17.30;80.10;;;;;;5045406;28;20320;-63
2021/07/24 04:33:51;;;;;;;19.00;12.15;;;17.40;80.20;;;;;;5044939;28;20217;-62
2021/07/24 04:36:17;;;;;;;18.55;11.88;;;17.50;80.90;;;;;;5044777;28;20057;-64
2021/07/24 04:38:42;;;;;;;17.35;11.95;;;17.40;80.60;;;;;;5045070;28;20386;-63
2021/07/24 04:41:08;;;;;;;20.42;12.50;;;17.40;80.30;;;;;;5045127;28;20241;-63
2021/07/24 04:43:33;;;;;;;18.30;11.88;;;17.50;80.40;;;;;;5028296;28;20341;-63
2021/07/24 04:45:59;;;;;;;19.23;12.40;;;17.60;80.70;;;;;;5044527;28;20037;-63
2021/07/24 04:48:24;;;;;;;23.27;12.27;;;17.70;80.30;;;;;;5044461;28;20033;-63
2021/07/24 04:50:54;;;;;;;19.05;12.60;;;17.60;80.40;;;;;;5045287;28;20048;-63
2021/07/24 04:53:20;;;;;;;19.63;12.57;;;17.80;80.60;;;;;;5043815;28;20125;-63
2021/07/24 04:55:45;;;;;;;24.50;13.23;;;17.80;79.80;;;;;;5027051;28;20041;-63
2021/07/24 04:58:11;;;;;;;19.50;12.95;;;17.80;80.00;;;;;;5043730;28;20038;-63
2021/07/24 05:00:38;;;;;;;19.23;12.80;;;17.80;79.80;;;;;;5044399;28;20044;-65
2021/07/24 05:03:04;;;;;;;20.45;12.95;;;17.80;80.10;;;;;;5043629;28;20220;-63
2021/07/24 05:05:29;;;;;;;19.20;12.80;;;17.80;80.20;;;;;;5043586;28;20037;-64
2021/07/24 05:07:55;;;;;;;22.15;12.88;;;17.80;80.30;;;;;;5044488;28;20255;-63
2021/07/24 05:10:20;;;;;;;20.08;13.13;;;17.90;80.10;;;;;;5043343;28;20022;-63
2021/07/24 05:12:46;;;;;;;23.52;13.65;;;17.90;79.50;;;;;;5044210;28;20030;-63
2021/07/24 05:15:11;;;;;;;17.45;12.43;;;18.00;79.80;;;;;;5044585;28;20085;-63
2021/07/24 05:17:40;;;;;;;19.75;13.13;;;18.00;79.90;;;;;;5044022;28;20049;-63
2021/07/24 05:20:08;;;;;;;19.95;12.63;;;18.10;80.00;;;;;;5043299;28;20049;-63
2021/07/24 05:22:33;;;;;;;18.13;12.93;;;18.10;79.60;;;;;;5042961;28;20037;-63
2021/07/24 05:24:59;;;;;;;20.08;13.48;;;18.10;79.50;;;;;;5044049;28;20037;-63
2021/07/24 05:27:24;;;;;;;26.15;14.65;;;18.20;79.20;;;;;;5043811;28;20034;-64
2021/07/24 05:29:50;;;;;;;22.92;14.88;;;18.20;78.00;;;;;;5044357;28;20029;-63
2021/07/24 05:32:15;;;;;;;26.15;15.48;;;18.30;77.70;;;;;;5044268;28;20034;-63
2021/07/24 05:34:41;;;;;;;25.33;14.20;;;18.20;77.10;;;;;;5042716;28;20025;-62
2021/07/24 05:37:06;;;;;;;26.23;14.00;;;18.30;76.80;;;;;;5042809;28;20324;-63
2021/07/24 05:39:32;;;;;;;23.35;14.65;;;18.30;76.70;;;;;;5044143;28;20306;-62
2021/07/24 05:41:58;;;;;;;21.92;13.77;;;18.30;76.30;;;;;;5044489;28;20029;-63
2021/07/24 05:44:23;;;;;;;22.20;12.95;;;18.40;76.20;;;;;;5044044;28;20083;-63
2021/07/24 05:46:49;;;;;;;20.67;13.20;;;18.40;76.10;;;;;;5043702;28;20033;-62
2021/07/24 05:49:14;;;;;;;21.13;13.65;;;18.40;76.10;;;;;;5043663;28;20026;-62
2021/07/24 05:51:40;;;;;;;19.30;12.68;;;18.50;76.00;;;;;;5042874;28;20033;-63
2021/07/24 05:54:08;;;;;;;20.70;12.98;;;18.50;75.50;;;;;;5044059;28;20308;-63
2021/07/24 05:56:35;;;;;;;22.75;12.77;;;18.60;75.90;;;;;;5043000;28;20034;-62
2021/07/24 05:59:01;;;;;;;20.45;13.35;;;18.70;76.00;;;;;;5042373;28;20033;-61
2021/07/24 06:01:26;;;;;;;24.13;13.30;;;18.80;76.00;;;;;;5043280;28;20221;-62
2021/07/24 06:03:52;;;;;;;19.92;12.65;;;18.80;75.60;;;;;;5043268;28;20033;-62
2021/07/24 06:06:17;;;;;;;21.15;13.30;;;18.90;75.50;;;;;;5043278;28;20037;-61
2021/07/24 06:08:43;;;;;;;21.48;12.75;;;18.90;75.20;;;;;;5043986;28;20321;-62
2021/07/24 06:11:08;;;;;;;20.05;12.80;;;19.00;75.10;;;;;;5043276;28;20034;-61
2021/07/24 06:13:34;;;;;;;18.85;12.65;;;19.10;75.00;;;;;;5043764;28;20037;-61
2021/07/24 06:15:59;;;;;;;19.35;12.70;;;19.10;74.90;;;;;;5043774;28;20217;-62
2021/07/24 06:18:25;;;;;;;19.92;12.20;;;19.20;75.60;;;;;;5042395;28;20317;-61
2021/07/24 06:20:50;;;;;;;19.42;12.57;;;19.30;75.50;;;;;;5044128;28;20243;-61
2021/07/24 06:23:16;;;;;;;26.02;12.45;;;19.40;74.70;;;;;;5043227;28;20068;-61
2021/07/24 06:25:43;;;;;;;19.77;12.20;;;19.50;74.70;;;;;;5043483;28;20053;-62
2021/07/24 06:28:09;;;;;;;19.90;13.10;;;19.50;74.30;;;;;;5043264;28;20097;-62
2021/07/24 06:30:34;;;;;;;19.13;12.35;;;19.60;74.10;;;;;;5043394;28;20029;-61
2021/07/24 06:33:00;;;;;;;18.85;12.75;;;19.60;74.40;;;;;;5043694;28;20201;-61
2021/07/24 06:35:25;;;;;;;21.05;13.10;;;19.70;74.40;;;;;;5043506;28;20085;-63
2021/07/24 06:37:51;;;;;;;17.83;11.93;;;19.80;73.90;;;;;;5042606;28;20140;-62
2021/07/24 06:40:17;;;;;;;17.92;12.32;;;19.80;73.70;;;;;;5043091;28;20382;-61
2021/07/24 06:42:43;;;;;;;16.88;11.75;;;19.90;73.40;;;;;;5043297;28;20033;-61
2021/07/24 06:45:09;;;;;;;22.38;12.80;;;20.00;73.20;;;;;;5043572;28;20037;-61
2021/07/24 06:47:34;;;;;;;17.20;11.90;;;20.20;72.50;;;;;;5042788;28;20030;-61
2021/07/24 06:50:00;;;;;;;20.48;12.05;;;20.30;72.70;;;;;;5042743;28;20052;-62
2021/07/24 06:52:25;;;;;;;20.02;11.35;;;20.40;73.70;;;;;;5041752;28;20089;-62
2021/07/24 06:54:51;;;;;;;18.92;12.05;;;20.50;73.80;;;;;;5042787;28;20079;-62
2021/07/24 06:57:16;;;;;;;19.30;11.73;;;20.60;73.40;;;;;;5043006;28;20025;-65
2021/07/24 06:59:42;;;;;;;16.38;11.25;;;20.80;74.70;;;;;;5043405;28;20379;-63
2021/07/24 07:02:10;;;;;;;17.58;11.90;;;20.80;72.90;;;;;;5044518;28;20040;-63
2021/07/24 07:04:35;;;;;;;20.42;12.35;;;21.00;72.40;;;;;;5046310;28;20049;-62
2021/07/24 07:07:01;;;;;;;18.38;12.45;;;21.20;72.20;;;;;;5046507;28;20076;-62
2021/07/24 07:09:26;;;;;;;16.55;11.18;;;21.30;70.60;;;;;;5045328;28;20044;-62
2021/07/24 07:11:56;;;;;;;17.08;11.80;;;21.30;70.00;;;;;;5047156;28;20091;-62
2021/07/24 07:14:21;;;;;;;19.27;11.63;;;21.50;69.40;;;;;;5046785;28;20092;-62
2021/07/24 07:16:47;;;;;;;19.02;11.57;;;21.60;70.10;;;;;;5046462;28;20069;-62
2021/07/24 07:19:12;;;;;;;16.73;11.13;;;21.80;68.10;;;;;;5046281;28;20033;-62
2021/07/24 07:21:38;;;;;;;17.77;11.60;;;21.80;67.20;;;;;;5046192;28;20029;-62
2021/07/24 07:24:03;;;;;;;17.33;11.20;;;21.90;66.60;;;;;;5046515;28;20045;-63
2021/07/24 07:26:29;;;;;;;18.00;11.50;;;21.90;68.30;;;;;;5046504;28;20060;-61
2021/07/24 07:28:55;;;;;;;18.05;11.57;;;22.00;67.60;;;;;;5046429;28;20038;-62
2021/07/24 07:31:22;;;;;;;18.08;10.90;;;22.00;65.40;;;;;;5046072;28;20060;-62
2021/07/24 07:33:47;;;;;;;14.65;10.95;;;21.90;67.60;;;;;;5046084;28;20030;-62
2021/07/24 07:36:13;;;;;;;19.17;11.07;;;21.90;68.50;;;;;;5046628;28;20040;-63
2021/07/24 07:38:38;;;;;;;17.98;11.63;;;22.00;71.00;;;;;;5046306;28;20033;-61
2021/07/24 07:41:04;;;;;;;19.02;11.25;;;22.00;69.90;;;;;;5046159;28;20038;-62
2021/07/24 07:43:29;;;;;;;16.80;11.50;;;22.10;68.80;;;;;;5045730;28;20049;-62
2021/07/24 07:45:56;;;;;;;17.25;11.40;;;22.10;69.10;;;;;;5045708;28;20045;-62
2021/07/24 07:48:22;;;;;;;19.52;11.45;;;22.20;69.50;;;;;;5045649;28;20382;-62
2021/07/24 07:50:47;;;;;;;17.77;10.85;;;22.30;69.20;;;;;;5046677;28;20029;-62
2021/07/24 07:53:13;;;;;;;18.20;11.75;;;22.40;70.00;;;;;;5044821;28;20045;-63
2021/07/24 07:55:41;;;;;;;19.77;12.30;;;22.60;69.30;;;;;;5045625;28;20037;-63
2021/07/24 07:58:14;;;;;;;19.98;11.10;;;22.50;68.50;;;;;;5045422;28;20034;-62
2021/07/24 08:00:40;;;;;;;20.40;11.80;;;22.40;68.50;;;;;;5045485;28;20033;-62
2021/07/24 08:03:05;;;;;;;19.30;12.73;;;22.40;68.80;;;;;;5046223;28;20328;-62
2021/07/24 08:05:31;;;;;;;20.63;11.95;;;22.40;68.50;;;;;;5046045;28;20029;-62
2021/07/24 08:07:56;;;;;;;17.80;11.57;;;22.50;67.50;;;;;;5045064;28;20040;-62
2021/07/24 08:10:22;;;;;;;16.83;11.05;;;22.60;67.40;;;;;;5045215;28;20198;-63
2021/07/24 08:12:48;;;;;;;17.45;11.35;;;22.70;69.30;;;;;;5045233;28;20087;-63
2021/07/24 08:15:13;;;;;;;20.45;11.80;;;22.60;68.00;;;;;;5045316;28;20029;-63
2021/07/24 08:17:39;;;;;;;19.88;11.57;;;22.60;68.40;;;;;;5045640;28;20041;-63
2021/07/24 08:20:05;;;;;;;18.65;12.25;;;22.70;68.90;;;;;;5044414;28;20037;-62
2021/07/24 08:22:31;;;;;;;20.17;11.68;;;22.70;67.40;;;;;;5043989;28;20034;-62
2021/07/24 08:24:56;;;;;;;16.73;11.45;;;22.80;68.70;;;;;;5044378;28;20044;-62
2021/07/24 08:27:22;;;;;;;17.95;10.93;;;22.80;68.20;;;;;;5044939;28;20244;-63
2021/07/24 08:29:47;;;;;;;18.92;11.48;;;22.80;68.10;;;;;;5045726;28;20079;-63
2021/07/24 08:32:13;;;;;;;18.77;11.82;;;22.80;69.30;;;;;;5045339;28;20206;-62
2021/07/24 08:34:38;;;;;;;17.48;11.63;;;22.80;67.50;;;;;;5045102;28;20033;-63
2021/07/24 08:37:06;;;;;;;18.75;11.35;;;22.70;68.20;;;;;;5043860;28;20085;-62
2021/07/24 08:39:32;;;;;;;18.98;11.43;;;22.70;67.80;;;;;;5044644;28;20026;-62
2021/07/24 08:41:57;;;;;;;18.77;11.07;;;22.70;68.70;;;;;;5044716;28;20088;-63
2021/07/24 08:44:23;;;;;;;18.73;11.80;;;22.70;68.70;;;;;;5044996;28;20041;-62
2021/07/24 08:46:48;;;;;;;19.50;12.43;;;22.70;69.40;;;;;;5044922;28;20083;-62
2021/07/24 08:49:14;;;;;;;16.92;11.00;;;22.60;70.20;;;;;;5043568;28;20025;-62
2021/07/24 08:51:39;;;;;;;19.73;11.65;;;22.70;69.40;;;;;;5044517;28;20041;-62
2021/07/24 08:54:05;;;;;;;18.52;11.80;;;22.60;69.60;;;;;;5045211;28;20049;-61
2021/07/24 08:56:33;;;;;;;20.45;11.60;;;22.60;70.10;;;;;;5044960;28;20044;-61
2021/07/24 08:58:59;;;;;;;18.13;11.98;;;22.60;70.20;;;;;;5042871;28;20061;-61
2021/07/24 09:01:25;;;;;;;15.32;11.27;;;22.60;70.00;;;;;;5043084;28;20084;-61
2021/07/24 09:03:51;;;;;;;18.27;11.27;;;22.50;69.40;;;;;;5043171;28;20051;-61
2021/07/24 09:06:21;;;;;;;20.10;11.75;;;22.50;69.80;;;;;;5044699;28;20053;-61
2021/07/24 09:08:53;;;;;;;20.10;12.65;;;22.50;70.10;;;;;;5045159;28;20071;-61
2021/07/24 09:11:19;;;;;;;19.45;11.57;;;22.50;69.80;;;;;;5044560;28;20038;-62
2021/07/24 09:13:45;;;;;;;18.33;11.88;;;22.50;70.20;;;;;;5044201;28;20034;-61
2021/07/24 09:16:11;;;;;;;21.05;12.18;;;22.30;69.60;;;;;;5042918;28;20033;-61
2021/07/24 09:18:37;;;;;;;18.05;11.68;;;22.20;69.80;;;;;;5043960;28;20337;-62
2021/07/24 09:21:02;;;;;;;17.02;11.07;;;22.00;70.90;;;;;;5044408;28;20420;-62
2021/07/24 09:23:39;;;;;;;18.88;11.77;;;21.90;71.60;;;;;;5043991;28;20053;-61
2021/07/24 09:26:05;;;;;;;19.27;12.00;;;21.90;72.40;;;;;;5042870;28;20053;-61
2021/07/24 09:28:32;;;;;;;17.67;12.00;;;21.90;72.70;;;;;;5044168;28;20088;-64
2021/07/24 09:30:57;;;;;;;17.08;11.30;;;22.00;72.90;;;;;;5044199;28;20271;-62
2021/07/24 09:33:23;;;;;;;20.83;11.30;;;22.00;72.20;;;;;;5042990;28;20029;-61
2021/07/24 09:35:53;;;;;;;20.17;11.90;;;22.10;73.00;;;;;;5044571;28;20080;-61
2021/07/24 09:38:29;;;;;;;20.33;11.70;;;22.20;74.10;;;;;;5043923;28;20049;-62
2021/07/24 09:40:56;;;;;;;22.23;11.27;;;22.10;71.80;;;;;;5044059;28;20136;-62
2021/07/24 09:43:41;;;;;;;18.88;10.65;;;22.20;70.90;;;;;;5043710;28;20045;-61
2021/07/24 09:46:14;;;;;;;18.45;10.45;;;22.30;71.60;;;;;;5043623;28;20038;-62
2021/07/24 09:48:50;;;;;;;18.27;11.57;;;22.30;71.60;;;;;;5043624;28;20045;-63
2021/07/24 09:51:30;;;;;;;18.55;11.02;;;22.40;70.80;;;;;;5044434;28;20197;-62
2021/07/24 09:53:55;;;;;;;18.38;11.13;;;22.70;70.20;;;;;;5043403;28;20033;-63
2021/07/24 09:56:21;;;;;;;16.27;11.02;;;22.80;71.10;;;;;;5026520;28;20041;-64
2021/07/24 09:58:47;;;;;;;16.65;10.25;;;23.00;69.80;;;;;;5023599;28;20105;-63
2021/07/24 10:01:18;;;;;;;17.55;10.63;;;23.20;70.80;;;;;;5043612;28;20056;-63
2021/07/24 10:03:47;;;;;;;15.13;10.18;;;23.40;68.60;;;;;;5042415;28;20101;-63
2021/07/24 10:06:16;;;;;;;17.63;10.95;;;23.50;69.00;;;;;;5043927;28;20042;-64
2021/07/24 10:08:43;;;;;;;19.15;10.85;;;23.70;68.70;;;;;;5042967;28;20033;-64
2021/07/24 10:11:09;;;;;;;23.27;10.70;;;23.90;69.80;;;;;;5043361;28;20037;-63
2021/07/24 10:13:35;;;;;;;15.13;10.05;;;24.00;67.20;;;;;;5043542;28;20034;-62
2021/07/24 10:16:00;;;;;;;15.82;10.43;;;24.20;68.30;;;;;;5042165;28;20087;-62
2021/07/24 10:18:26;;;;;;;17.00;10.40;;;24.30;69.00;;;;;;5043355;28;20300;-62
2021/07/24 10:20:52;;;;;;;17.40;9.68;;;24.40;66.50;;;;;;5044090;28;20028;-62
2021/07/24 10:23:21;;;;;;;20.25;10.52;;;24.50;67.00;;;;;;5043268;28;20045;-64
2021/07/24 10:26:09;;;;;;;21.38;10.20;;;24.50;67.10;;;;;;5043540;28;20089;-62
2021/07/24 10:28:36;;;;;;;18.02;10.85;;;24.70;65.80;;;;;;5042117;28;20093;-62
2021/07/24 10:31:15;;;;;;;15.60;10.32;;;24.50;65.50;;;;;;5043299;28;20029;-63
2021/07/24 10:33:40;;;;;;;14.75;10.05;;;24.70;65.60;;;;;;5042708;28;20041;-61
2021/07/24 10:36:10;;;;;;;16.50;10.10;;;24.60;63.20;;;;;;5042722;28;20029;-64
2021/07/24 10:38:35;;;;;;;16.08;10.07;;;24.70;63.90;;;;;;5047473;28;20037;-68
2021/07/24 10:41:23;;;;;;;14.85;10.35;;;24.60;63.10;;;;;;4996790;28;20037;-66
2021/07/24 10:44:15;;;;;;;15.00;10.23;;;24.60;65.10;;;;;;5047253;28;20229;-64
2021/07/24 10:46:41;;;;;;;14.57;9.63;;;24.70;64.80;;;;;;5045800;28;20044;-64
2021/07/24 10:49:07;;;;;;;18.25;10.70;;;24.60;63.30;;;;;;5046966;28;20037;-63
2021/07/24 10:51:58;;;;;;;15.27;10.25;;;24.70;65.30;;;;;;5046939;28;20029;-64
2021/07/24 10:54:24;;;;;;;15.15;9.77;;;24.80;65.00;;;;;;5046588;28;20025;-64
2021/07/24 10:56:49;;;;;;;17.70;10.60;;;24.90;66.30;;;;;;5047073;28;20061;-64
2021/07/24 10:59:21;;;;;;;19.67;10.80;;;25.00;63.80;;;;;;5047030;28;20060;-64
2021/07/24 11:01:48;;;;;;;15.45;10.45;;;25.20;64.10;;;;;;5046785;28;20044;-63
2021/07/24 11:04:36;;;;;;;18.92;10.45;;;25.20;65.90;;;;;;5046715;28;20038;-65
2021/07/24 11:07:14;;;;;;;16.27;10.65;;;25.20;65.70;;;;;;5045280;28;20044;-63
2021/07/24 11:09:40;;;;;;;18.58;11.05;;;25.30;64.30;;;;;;5046284;28;20040;-65
2021/07/24 11:12:09;;;;;;;16.23;10.10;;;25.30;65.10;;;;;;5046036;28;20038;-65
2021/07/24 11:14:38;;;;;;;17.38;10.95;;;25.40;63.10;;;;;;5046846;28;20037;-64
2021/07/24 11:17:06;;;;;;;15.30;9.52;;;25.30;60.50;;;;;;5046785;28;20033;-66
2021/07/24 11:19:32;;;;;;;15.25;9.77;;;25.50;60.00;;;;;;5046601;28;20099;-67
2021/07/24 11:22:11;;;;;;;14.68;9.65;;;25.60;61.10;;;;;;5028663;28;20248;-65
2021/07/24 11:24:37;;;;;;;14.82;9.25;;;25.80;63.40;;;;;;5044750;28;20060;-66
2021/07/24 11:27:03;;;;;;;13.35;9.20;;;25.90;62.70;;;;;;5045448;28;20090;-63
2021/07/24 11:29:29;;;;;;;16.45;10.13;;;26.10;59.80;;;;;;5046418;28;20041;-64
2021/07/24 11:31:54;;;;;;;13.77;9.70;;;26.10;58.00;;;;;;5046277;28;20041;-64
2021/07/24 11:34:21;;;;;;;17.40;10.05;;;26.10;57.30;;;;;;5045070;28;20026;-64
2021/07/24 11:36:50;;;;;;;13.90;9.43;;;26.30;59.60;;;;;;5045805;28;20052;-64
2021/07/24 11:39:15;;;;;;;13.93;9.10;;;26.30;58.50;;;;;;5046199;28;20049;-65
2021/07/24 11:41:41;;;;;;;16.38;9.70;;;26.30;58.40;;;;;;5028861;28;20170;-64
2021/07/24 11:44:06;;;;;;;14.10;9.73;;;26.40;61.30;;;;;;5046052;28;20044;-64
2021/07/24 11:46:32;;;;;;;17.63;10.30;;;26.50;58.60;;;;;;5045781;28;20053;-64
2021/07/24 11:49:04;;;;;;;15.95;9.30;;;26.50;58.80;;;;;;5044432;28;20332;-65
2021/07/24 11:51:29;;;;;;;14.80;10.10;;;26.60;54.60;;;;;;5045463;28;20029;-64
2021/07/24 11:53:55;;;;;;;14.07;9.82;;;26.70;54.20;;;;;;5046327;28;20053;-65
2021/07/24 11:56:21;;;;;;;14.40;9.85;;;26.70;55.80;;;;;;5046104;28;20037;-65
2021/07/24 11:58:53;;;;;;;17.50;10.00;;;26.60;57.10;;;;;;5044397;28;20049;-65
2021/07/24 12:01:23;;;;;;;15.27;9.75;;;26.60;55.50;;;;;;5045600;28;20328;-64
2021/07/24 12:04:09;;;;;;;16.48;9.13;;;26.70;58.00;;;;;;5027851;28;20025;-64
2021/07/24 12:06:36;;;;;;;13.98;9.63;;;26.70;57.10;;;;;;5044151;28;20079;-64
2021/07/24 12:09:01;;;;;;;19.02;9.65;;;26.60;56.90;;;;;;5044658;28;20033;-64
2021/07/24 12:11:27;;;;;;;13.48;9.30;;;26.60;56.40;;;;;;5044593;28;20040;-65
2021/07/24 12:14:02;;;;;;;16.35;9.50;;;26.60;57.80;;;;;;5044119;28;20037;-64
2021/07/24 12:16:34;;;;;;;15.00;8.93;;;26.70;58.40;;;;;;5044192;28;20037;-65
2021/07/24 12:19:10;;;;;;;18.65;10.05;;;26.80;58.00;;;;;;5045492;28;20080;-65
2021/07/24 12:21:35;;;;;;;14.88;10.35;;;26.80;59.40;;;;;;5043954;28;20029;-65
2021/07/24 12:24:05;;;;;;;12.88;8.85;;;27.00;56.90;;;;;;5044148;28;20120;-64
2021/07/24 12:26:31;;;;;;;19.48;10.18;;;27.10;58.10;;;;;;5044270;28;20100;-64
2021/07/24 12:28:58;;;;;;;14.50;10.32;;;27.20;57.20;;;;;;5043815;28;20229;-64